createdAt,value
2023-03-03T00:01:27.724Z,14.37
2023-03-03T00:03:54.983Z,15.07
2023-03-03T00:06:22.121Z,14.00
2023-03-03T00:08:49.132Z,16.43
2023-03-03T00:11:16.226Z,15.50
2023-03-03T00:13:56.171Z,15.73
2023-03-03T00:16:40.841Z,16.07
2023-03-03T00:19:18.952Z,15.20
2023-03-03T00:21:48.960Z,15.20
2023-03-03T00:24:30.354Z,15.70
2023-03-03T00:27:08.971Z,14.73
2023-03-03T00:29:41.054Z,15.47
2023-03-03T00:32:28.153Z,15.03
2023-03-03T00:35:02.844Z,15.63
2023-03-03T00:37:36.216Z,15.43
2023-03-03T00:40:33.253Z,16.43
2023-03-03T00:43:02.390Z,15.43
2023-03-03T00:45:34.456Z,16.10
2023-03-03T00:48:37.704Z,16.67
2023-03-03T00:51:23.273Z,16.70
2023-03-03T00:53:50.962Z,14.17
2023-03-03T00:56:17.766Z,16.73
2023-03-03T00:58:46.406Z,17.30
2023-03-03T01:01:15.933Z,16.73
2023-03-03T01:03:46.950Z,18.07
2023-03-03T01:06:15.245Z,16.77
2023-03-03T01:08:42.336Z,16.70
2023-03-03T01:11:19.666Z,18.33
2023-03-03T01:13:50.903Z,16.40
2023-03-03T01:16:19.032Z,16.70
2023-03-03T01:18:46.675Z,17.10
2023-03-03T01:21:13.747Z,17.83
2023-03-03T01:23:40.716Z,16.50
2023-03-03T01:26:08.342Z,17.70
2023-03-03T01:28:35.329Z,17.37
2023-03-03T01:31:04.808Z,16.87
2023-03-03T01:33:34.087Z,18.30
2023-03-03T01:36:01.552Z,18.80
2023-03-03T01:38:29.252Z,16.10
2023-03-03T01:40:58.736Z,16.73
2023-03-03T01:43:31.115Z,16.57
2023-03-03T01:45:57.905Z,15.33
2023-03-03T01:48:33.042Z,15.17
2023-03-03T01:51:27.578Z,14.57
2023-03-03T01:54:06.539Z,16.70
2023-03-03T01:56:33.638Z,16.10
2023-03-03T01:59:33.359Z,16.13
2023-03-03T02:02:00.255Z,16.77
2023-03-03T02:04:29.300Z,16.63
2023-03-03T02:07:04.228Z,16.50
2023-03-03T02:09:59.464Z,18.03
2023-03-03T02:12:59.882Z,13.17
2023-03-03T02:15:35.902Z,16.00
2023-03-03T02:18:12.421Z,16.80
2023-03-03T02:21:06.657Z,15.00
2023-03-03T02:23:59.536Z,16.27
2023-03-03T02:26:29.751Z,16.20
2023-03-03T02:29:01.805Z,18.63
2023-03-03T02:31:32.235Z,15.77
2023-03-03T02:34:00.422Z,18.77
2023-03-03T02:36:35.384Z,17.83
2023-03-03T02:39:16.485Z,18.27
2023-03-03T02:41:51.314Z,18.43
2023-03-03T02:44:26.933Z,18.27
2023-03-03T02:46:55.677Z,18.37
2023-03-03T02:49:34.112Z,17.80
2023-03-03T02:52:03.998Z,18.23
2023-03-03T02:54:31.412Z,18.37
2023-03-03T02:57:00.999Z,17.07
2023-03-03T02:59:28.340Z,16.67
2023-03-03T03:01:57.822Z,18.63
2023-03-03T03:04:27.421Z,19.07
2023-03-03T03:06:55.239Z,19.27
2023-03-03T03:09:25.463Z,17.33
2023-03-03T03:11:53.911Z,20.20
2023-03-03T03:14:24.652Z,18.07
2023-03-03T03:16:53.061Z,18.67
2023-03-03T03:19:20.829Z,18.50
2023-03-03T03:21:47.909Z,19.47
2023-03-03T03:24:15.252Z,20.50
2023-03-03T03:26:47.146Z,19.30
2023-03-03T03:29:14.750Z,19.97
2023-03-03T03:31:43.709Z,21.10
2023-03-03T03:34:10.578Z,21.30
2023-03-03T03:36:39.750Z,21.70
2023-03-03T03:39:06.937Z,19.97
2023-03-03T03:41:36.621Z,21.00
2023-03-03T03:44:04.008Z,21.10
2023-03-03T03:46:30.963Z,21.03
2023-03-03T03:48:58.329Z,21.03
2023-03-03T03:51:25.715Z,21.17
2023-03-03T03:53:52.642Z,23.10
2023-03-03T03:56:19.446Z,22.07
2023-03-03T03:58:49.720Z,20.90
2023-03-03T04:01:16.751Z,20.90
2023-03-03T04:03:49.225Z,19.23
2023-03-03T04:06:19.361Z,19.53
2023-03-03T04:08:46.209Z,20.80
2023-03-03T04:11:14.199Z,22.53
2023-03-03T04:13:42.652Z,21.60
2023-03-03T04:16:10.102Z,21.10
2023-03-03T04:18:38.966Z,22.43
2023-03-03T04:21:06.513Z,21.37
2023-03-03T04:23:34.085Z,20.10
2023-03-03T04:26:03.019Z,21.47
2023-03-03T04:28:30.327Z,21.40
2023-03-03T04:30:59.014Z,22.40
2023-03-03T04:33:26.663Z,20.63
2023-03-03T04:35:54.069Z,21.53
2023-03-03T04:38:21.927Z,21.93
2023-03-03T04:40:49.630Z,22.00
2023-03-03T04:43:17.841Z,21.50
2023-03-03T04:45:45.141Z,22.00
2023-03-03T04:48:12.091Z,21.27
2023-03-03T04:50:39.205Z,20.43
2023-03-03T04:53:06.456Z,19.47
2023-03-03T04:55:35.690Z,22.27
2023-03-03T04:58:02.758Z,19.50
2023-03-03T05:00:30.037Z,19.90
2023-03-03T05:02:57.379Z,20.60
2023-03-03T05:05:24.204Z,20.77
2023-03-03T05:07:51.299Z,22.57
2023-03-03T05:10:18.157Z,19.90
2023-03-03T05:12:44.959Z,21.53
2023-03-03T05:15:12.189Z,20.60
2023-03-03T05:17:39.261Z,20.63
2023-03-03T05:20:08.664Z,20.43
2023-03-03T05:22:35.480Z,20.93
2023-03-03T05:25:02.272Z,21.87
2023-03-03T05:27:29.050Z,20.37
2023-03-03T05:29:56.188Z,21.00
2023-03-03T05:32:23.329Z,22.43
2023-03-03T05:34:51.066Z,20.93
2023-03-03T05:37:17.890Z,22.03
2023-03-03T05:39:44.692Z,21.90
2023-03-03T05:42:13.519Z,22.17
2023-03-03T05:44:40.526Z,21.40
2023-03-03T05:47:09.724Z,21.53
2023-03-03T05:49:37.119Z,21.63
2023-03-03T05:52:04.214Z,20.57
2023-03-03T05:54:31.335Z,22.70
2023-03-03T05:56:58.222Z,20.07
2023-03-03T05:59:25.167Z,20.07
2023-03-03T06:01:52.275Z,20.47
2023-03-03T06:04:19.280Z,19.67
2023-03-03T06:06:46.067Z,20.80
2023-03-03T06:09:12.890Z,20.47
2023-03-03T06:11:39.724Z,19.43
2023-03-03T06:14:06.580Z,20.13
2023-03-03T06:16:33.788Z,20.70
2023-03-03T06:19:01.295Z,20.07
2023-03-03T06:21:28.109Z,21.23
2023-03-03T06:23:55.124Z,21.60
2023-03-03T06:26:22.203Z,20.80
2023-03-03T06:28:50.154Z,20.27
2023-03-03T06:31:17.116Z,20.97
2023-03-03T06:33:44.201Z,21.20
2023-03-03T06:36:11.070Z,21.23
2023-03-03T06:38:38.038Z,21.20
2023-03-03T06:41:07.343Z,20.83
2023-03-03T06:43:35.741Z,20.47
2023-03-03T06:46:04.588Z,20.97
2023-03-03T06:48:33.373Z,20.83
2023-03-03T06:51:03.271Z,21.70
2023-03-03T06:53:32.890Z,22.93
2023-03-03T06:56:01.867Z,20.40
2023-03-03T06:58:29.468Z,24.33
2023-03-03T07:01:01.250Z,23.73
2023-03-03T07:03:34.305Z,21.73
2023-03-03T07:06:08.639Z,20.33
2023-03-03T07:08:36.956Z,21.23
2023-03-03T07:11:13.066Z,21.70
2023-03-03T07:13:47.830Z,19.30
2023-03-03T07:16:16.696Z,18.80
2023-03-03T07:18:57.213Z,18.20
2023-03-03T07:21:36.431Z,17.60
2023-03-03T07:24:31.712Z,17.53
2023-03-03T07:27:19.969Z,17.80
2023-03-03T07:29:53.358Z,18.63
2023-03-03T07:32:27.604Z,18.40
2023-03-03T07:34:56.740Z,18.30
2023-03-03T07:37:39.036Z,18.83
2023-03-03T07:40:29.192Z,17.37
2023-03-03T07:42:56.003Z,17.93
2023-03-03T07:45:40.777Z,17.47
2023-03-03T07:48:27.080Z,17.17
2023-03-03T07:51:06.159Z,16.43
2023-03-03T07:53:37.036Z,16.17
2023-03-03T07:56:29.818Z,17.03
2023-03-03T07:58:58.222Z,17.47
2023-03-03T08:01:47.140Z,17.13
2023-03-03T08:04:24.213Z,16.83
2023-03-03T08:06:53.692Z,16.83
2023-03-03T08:09:20.726Z,17.73
2023-03-03T08:11:55.086Z,17.47
2023-03-03T08:14:33.697Z,16.37
2023-03-03T08:17:02.051Z,16.10
2023-03-03T08:19:31.292Z,16.00
2023-03-03T08:22:17.492Z,15.97
2023-03-03T08:24:44.364Z,17.13
2023-03-03T08:27:11.717Z,15.97
2023-03-03T08:29:38.812Z,15.97
2023-03-03T08:32:06.022Z,15.60
2023-03-03T08:34:33.127Z,15.53
2023-03-03T08:37:00.001Z,16.80
2023-03-03T08:39:26.916Z,15.80
2023-03-03T08:41:53.737Z,15.93
2023-03-03T08:44:20.699Z,15.63
2023-03-03T08:46:47.601Z,15.77
2023-03-03T08:49:14.568Z,15.57
2023-03-03T08:51:41.456Z,17.63
2023-03-03T08:54:08.718Z,17.00
2023-03-03T08:56:35.494Z,15.03
2023-03-03T08:59:03.180Z,14.90
2023-03-03T09:01:32.982Z,14.50
2023-03-03T09:04:00.279Z,14.30
2023-03-03T09:06:27.908Z,14.20
2023-03-03T09:08:54.905Z,14.57
2023-03-03T09:11:28.241Z,14.23
2023-03-03T09:14:18.252Z,14.17
2023-03-03T09:16:52.704Z,21.23
2023-03-03T09:19:32.449Z,15.23
2023-03-03T09:22:22.935Z,14.80
2023-03-03T09:24:54.292Z,13.30
2023-03-03T09:27:37.176Z,13.70
2023-03-03T09:30:28.833Z,14.70
2023-03-03T09:33:00.448Z,13.77
2023-03-03T09:35:43.605Z,13.67
2023-03-03T09:38:34.086Z,12.53
2023-03-03T09:41:44.941Z,12.73
2023-03-03T09:44:36.841Z,12.33
2023-03-03T09:47:39.117Z,11.73
2023-03-03T09:50:34.477Z,12.73
2023-03-03T09:53:23.584Z,14.57
2023-03-03T09:56:18.223Z,13.40
2023-03-03T09:59:08.798Z,11.73
2023-03-03T10:02:06.040Z,12.53
2023-03-03T10:05:17.327Z,12.70
2023-03-03T10:07:54.029Z,11.93
2023-03-03T10:11:03.869Z,13.33
2023-03-03T10:14:13.590Z,12.40
2023-03-03T10:17:16.863Z,12.00
2023-03-03T10:20:12.270Z,12.50
2023-03-03T10:23:21.079Z,11.93
2023-03-03T10:26:16.726Z,12.50
2023-03-03T10:29:11.048Z,12.60
2023-03-03T10:31:54.379Z,12.67
2023-03-03T10:34:46.794Z,12.50
2023-03-03T10:37:51.086Z,12.80
2023-03-03T10:40:32.862Z,13.47
2023-03-03T10:43:32.164Z,13.00
2023-03-03T10:46:37.309Z,13.53
2023-03-03T10:49:14.648Z,14.20
2023-03-03T10:52:39.570Z,12.10
2023-03-03T10:55:42.619Z,12.03
2023-03-03T10:58:49.206Z,12.17
2023-03-03T11:01:55.288Z,11.03
2023-03-03T11:05:17.655Z,10.60
2023-03-03T11:08:01.497Z,11.33
2023-03-03T11:10:52.661Z,11.33
2023-03-03T11:14:05.577Z,11.33
2023-03-03T11:17:14.137Z,11.47
2023-03-03T11:19:52.817Z,10.53
2023-03-03T11:22:34.435Z,10.73
2023-03-03T11:25:41.744Z,11.10
2023-03-03T11:28:50.854Z,12.13
2023-03-03T11:31:54.937Z,13.70
2023-03-03T11:34:36.462Z,13.67
2023-03-03T11:37:50.254Z,12.60
2023-03-03T11:40:36.502Z,11.97
2023-03-03T11:43:35.709Z,11.23
2023-03-03T11:46:13.018Z,12.13
2023-03-03T11:49:04.998Z,11.77
2023-03-03T11:51:43.690Z,12.40
2023-03-03T11:55:00.241Z,11.97
2023-03-03T11:57:42.158Z,11.70
2023-03-03T12:00:41.085Z,11.17
2023-03-03T12:03:29.984Z,11.73
2023-03-03T12:06:44.852Z,11.93
2023-03-03T12:09:32.229Z,11.87
2023-03-03T12:12:14.161Z,11.87
2023-03-03T12:15:00.114Z,11.57
2023-03-03T12:17:45.094Z,12.33
2023-03-03T12:20:57.731Z,11.93
2023-03-03T12:24:03.750Z,11.30
2023-03-03T12:26:59.742Z,11.50
2023-03-03T12:30:07.293Z,11.67
2023-03-03T12:33:12.277Z,9.90
2023-03-03T12:36:08.434Z,11.17
2023-03-03T12:39:13.548Z,10.80
2023-03-03T12:42:06.392Z,9.90
2023-03-03T12:44:54.408Z,9.40
2023-03-03T12:47:39.048Z,9.30
2023-03-03T12:50:31.713Z,10.17
2023-03-03T12:53:22.915Z,10.47
2023-03-03T12:56:00.939Z,9.90
2023-03-03T12:58:55.894Z,9.87
2023-03-03T13:02:25.144Z,9.50
2023-03-03T13:05:20.272Z,9.70
2023-03-03T13:08:33.678Z,9.33
2023-03-03T13:11:25.238Z,9.70
2023-03-03T13:14:20.460Z,10.87
2023-03-03T13:17:21.399Z,9.80
2023-03-03T13:20:10.205Z,9.93
2023-03-03T13:22:53.621Z,10.60
2023-03-03T13:25:47.717Z,9.13
2023-03-03T13:28:33.441Z,9.63
2023-03-03T13:31:20.827Z,10.10
2023-03-03T13:33:59.215Z,9.93
2023-03-03T13:36:50.916Z,11.47
2023-03-03T13:39:28.089Z,11.50
2023-03-03T13:42:32.747Z,9.57
2023-03-03T13:45:07.091Z,9.67
2023-03-03T13:48:00.579Z,9.43
2023-03-03T13:50:48.843Z,11.50
2023-03-03T13:54:04.898Z,10.10
2023-03-03T13:57:06.407Z,10.57
2023-03-03T14:00:31.398Z,11.43
2023-03-03T14:03:18.714Z,14.10
2023-03-03T14:06:02.132Z,10.50
2023-03-03T14:09:21.352Z,9.73
2023-03-03T14:12:08.542Z,10.90
2023-03-03T14:15:24.836Z,10.10
2023-03-03T14:18:06.883Z,10.27
2023-03-03T14:20:47.206Z,15.70
2023-03-03T14:23:28.800Z,11.83
2023-03-03T14:26:07.012Z,10.53
2023-03-03T14:28:49.731Z,10.90
2023-03-03T14:31:38.206Z,9.43
2023-03-03T14:34:23.039Z,10.23
2023-03-03T14:36:57.399Z,10.53
2023-03-03T14:39:37.717Z,10.43
2023-03-03T14:42:30.576Z,9.83
2023-03-03T14:44:59.381Z,11.43
2023-03-03T14:47:28.855Z,11.40
2023-03-03T14:50:02.979Z,10.00
2023-03-03T14:52:34.082Z,10.83
2023-03-03T14:55:31.676Z,10.60
2023-03-03T14:58:00.304Z,12.33
2023-03-03T15:00:36.375Z,11.00
2023-03-03T15:03:28.305Z,10.77
2023-03-03T15:05:58.394Z,11.47
2023-03-03T15:08:34.988Z,10.83
2023-03-03T15:11:28.422Z,11.47
2023-03-03T15:14:16.101Z,10.60
2023-03-03T15:16:45.919Z,10.93
2023-03-03T15:19:35.621Z,12.40
2023-03-03T15:22:26.006Z,10.30
2023-03-03T15:25:05.789Z,10.33
2023-03-03T15:27:49.355Z,10.47
2023-03-03T15:30:36.241Z,14.17
2023-03-03T15:33:40.104Z,9.73
2023-03-03T15:36:36.547Z,12.30
2023-03-03T15:39:27.670Z,20.37
2023-03-03T15:42:06.923Z,10.63
2023-03-03T15:45:05.737Z,14.83
2023-03-03T15:48:13.840Z,11.97
2023-03-03T15:51:11.622Z,10.97
2023-03-03T15:54:06.222Z,10.40
2023-03-03T15:56:48.074Z,9.47
2023-03-03T15:59:46.336Z,9.80
2023-03-03T16:02:23.573Z,9.30
2023-03-03T16:05:15.264Z,9.53
2023-03-03T16:08:22.583Z,9.87
2023-03-03T16:11:21.349Z,11.00
2023-03-03T16:14:16.468Z,11.17
2023-03-03T16:16:43.239Z,9.73
2023-03-03T16:19:46.886Z,10.00
2023-03-03T16:22:47.298Z,10.03
2023-03-03T16:25:50.924Z,12.20
2023-03-03T16:29:06.301Z,10.03
2023-03-03T16:31:53.138Z,12.87
2023-03-03T16:34:42.804Z,10.33
2023-03-03T16:37:20.784Z,10.60
2023-03-03T16:40:03.174Z,10.20
2023-03-03T16:42:33.168Z,12.83
2023-03-03T16:45:30.977Z,12.13
2023-03-03T16:47:57.911Z,24.30
2023-03-03T16:50:43.789Z,12.17
2023-03-03T16:53:35.827Z,10.93
2023-03-03T16:56:24.080Z,12.00
2023-03-03T16:59:36.198Z,13.03
2023-03-03T17:02:51.811Z,12.80
2023-03-03T17:05:41.627Z,12.83
2023-03-03T17:08:35.755Z,13.83
2023-03-03T17:11:47.913Z,14.60
2023-03-03T17:14:53.040Z,15.50
2023-03-03T17:17:51.214Z,11.30
2023-03-03T17:20:31.227Z,25.13
2023-03-03T17:23:23.393Z,15.80
2023-03-03T17:26:26.274Z,14.10
2023-03-03T17:29:21.968Z,11.47
2023-03-03T17:32:28.765Z,12.67
2023-03-03T17:35:40.802Z,13.60
2023-03-03T17:38:38.465Z,11.47
2023-03-03T17:41:37.182Z,11.03
2023-03-03T17:44:33.098Z,12.47
2023-03-03T17:47:26.303Z,18.77
2023-03-03T17:50:08.457Z,18.93
2023-03-03T17:53:10.638Z,26.83
2023-03-03T17:55:59.089Z,25.57
2023-03-03T17:59:17.631Z,24.77
2023-03-03T18:01:49.464Z,44.13
2023-03-03T18:04:45.892Z,25.33
2023-03-03T18:07:41.864Z,22.20
2023-03-03T18:10:46.709Z,19.10
2023-03-03T18:13:43.927Z,31.77
2023-03-03T18:16:28.653Z,16.60
2023-03-03T18:19:20.202Z,25.20
2023-03-03T18:22:05.348Z,21.23
2023-03-03T18:24:40.757Z,18.07
2023-03-03T18:27:31.775Z,16.27
2023-03-03T18:30:20.288Z,13.97
2023-03-03T18:32:57.566Z,12.30
2023-03-03T18:35:39.443Z,13.33
2023-03-03T18:38:15.767Z,12.30
2023-03-03T18:40:56.793Z,14.40
2023-03-03T18:43:53.757Z,13.30
2023-03-03T18:46:20.523Z,10.90
2023-03-03T18:49:04.625Z,12.50
2023-03-03T18:51:34.598Z,11.90
2023-03-03T18:54:14.179Z,12.10
2023-03-03T18:56:43.673Z,22.27
2023-03-03T18:59:10.526Z,19.17
2023-03-03T19:01:45.212Z,15.67
2023-03-03T19:04:16.249Z,12.63
2023-03-03T19:06:42.950Z,12.87
2023-03-03T19:09:19.401Z,11.27
2023-03-03T19:11:56.264Z,10.33
2023-03-03T19:14:27.568Z,11.70
2023-03-03T19:16:57.166Z,13.00
2023-03-03T19:19:33.805Z,14.30
2023-03-03T19:22:27.677Z,13.63
2023-03-03T19:25:09.617Z,12.17
2023-03-03T19:28:04.859Z,10.23
2023-03-03T19:31:07.060Z,12.57
2023-03-03T19:33:57.156Z,16.03
2023-03-03T19:37:04.713Z,14.33
2023-03-03T19:40:06.200Z,12.27
2023-03-03T19:42:50.162Z,17.07
2023-03-03T19:45:40.689Z,18.90
2023-03-03T19:49:02.463Z,13.57
2023-03-03T19:51:40.547Z,12.13
2023-03-03T19:54:29.424Z,12.23
2023-03-03T19:57:00.542Z,9.97
2023-03-03T19:59:36.114Z,9.97
2023-03-03T20:03:00.241Z,11.30
2023-03-03T20:05:52.353Z,11.97
2023-03-03T20:08:33.202Z,11.43
2023-03-03T20:11:32.996Z,14.63
2023-03-03T20:14:21.830Z,12.57
2023-03-03T20:16:55.046Z,12.10
2023-03-03T20:20:04.449Z,9.47
2023-03-03T20:23:16.900Z,12.33
2023-03-03T20:25:50.006Z,19.83
2023-03-03T20:29:10.851Z,16.60
2023-03-03T20:32:07.215Z,15.27
2023-03-03T20:34:53.493Z,15.13
2023-03-03T20:37:50.137Z,14.07
2023-03-03T20:40:59.259Z,15.47
2023-03-03T20:43:41.484Z,13.53
2023-03-03T20:46:55.830Z,14.47
2023-03-03T20:49:54.389Z,12.60
2023-03-03T20:52:46.999Z,13.80
2023-03-03T20:55:49.157Z,13.57
2023-03-03T20:58:41.900Z,13.77
2023-03-03T21:01:21.336Z,14.17
2023-03-03T21:03:48.566Z,14.50
2023-03-03T21:06:19.544Z,14.50
2023-03-03T21:08:56.790Z,15.93
2023-03-03T21:11:32.742Z,13.67
2023-03-03T21:14:17.118Z,16.60
2023-03-03T21:16:44.035Z,14.50
2023-03-03T21:19:22.372Z,21.17
2023-03-03T21:21:50.382Z,21.00
2023-03-03T21:24:19.826Z,20.23
2023-03-03T21:27:01.608Z,21.00
2023-03-03T21:29:35.894Z,19.67
2023-03-03T21:32:09.195Z,19.70
2023-03-03T21:34:41.985Z,23.43
2023-03-03T21:37:33.882Z,20.40
2023-03-03T21:40:24.584Z,27.67
2023-03-03T21:42:54.812Z,26.90
2023-03-03T21:45:23.507Z,28.43
2023-03-03T21:47:52.097Z,19.93
2023-03-03T21:50:22.506Z,17.63
2023-03-03T21:52:49.565Z,12.70
2023-03-03T21:55:16.454Z,16.27
2023-03-03T21:57:43.260Z,17.33
2023-03-03T22:00:11.306Z,16.60
2023-03-03T22:02:38.119Z,20.20
2023-03-03T22:05:07.449Z,20.13
2023-03-03T22:07:34.595Z,21.73
2023-03-03T22:10:01.518Z,20.77
2023-03-03T22:12:28.561Z,20.07
2023-03-03T22:14:55.631Z,22.07
2023-03-03T22:17:25.627Z,20.40
2023-03-03T22:19:52.811Z,18.70
2023-03-03T22:22:19.639Z,17.60
2023-03-03T22:24:46.764Z,19.20
2023-03-03T22:27:14.331Z,17.07
2023-03-03T22:29:41.282Z,15.13
2023-03-03T22:32:08.136Z,17.90
2023-03-03T22:34:35.084Z,14.57
2023-03-03T22:37:01.886Z,20.00
2023-03-03T22:39:28.681Z,18.80
2023-03-03T22:41:55.476Z,20.27
2023-03-03T22:44:22.547Z,17.23
2023-03-03T22:46:49.468Z,19.37
2023-03-03T22:49:16.408Z,20.33
2023-03-03T22:51:43.465Z,22.00
2023-03-03T22:54:10.386Z,19.77
2023-03-03T22:56:37.164Z,20.33
2023-03-03T22:59:04.094Z,20.13
2023-03-03T23:01:31.025Z,23.07
2023-03-03T23:03:57.848Z,18.83
2023-03-03T23:06:24.716Z,22.43
2023-03-03T23:08:51.629Z,16.50
2023-03-03T23:11:18.587Z,21.37
2023-03-03T23:13:45.698Z,22.43
2023-03-03T23:16:12.678Z,23.10
2023-03-03T23:18:39.572Z,22.87
2023-03-03T23:21:06.401Z,25.17
2023-03-03T23:23:33.690Z,25.80
2023-03-03T23:26:01.124Z,25.83
2023-03-03T23:28:28.399Z,26.50
2023-03-03T23:30:55.453Z,25.03
2023-03-03T23:33:22.705Z,25.37
2023-03-03T23:35:50.019Z,24.83
2023-03-03T23:38:17.940Z,22.43
2023-03-03T23:40:48.243Z,21.63
2023-03-03T23:43:16.730Z,21.57
2023-03-03T23:45:44.434Z,19.33
2023-03-03T23:48:15.041Z,19.43
2023-03-03T23:50:42.248Z,17.60
2023-03-03T23:53:13.103Z,17.00
2023-03-03T23:55:40.348Z,16.93
2023-03-03T23:58:07.988Z,15.63
